Phillipstown, Illinois
Current Conditions -  °F | °C
As of 6:55 PM on Wednesday 17 Dec 2014 (Local Time) from KCUL Reporting Station
Clear Clear  
Wind Chill: -3°   Ceiling: Unl
Heat Index:   Visibility: 10mi
Dew Point: -2°   Wind: 6mph
Humidity: 90%   Direction: 30°NNE
Pressure: 30.3"   Gusts: NA
Location:  38.1681°N, 88.0517°W
Report Text: KCUL 180055Z AUTO 03005KT 10SM CLR 00/M01 A3030 RMK AO2 T00001015
Loading
Personal Weather Stations






























Interactive Weather Map New forecast layout! Learn more

10-Day Weather Forecast

Advertisements
Track Severe Weather on mobile